Time;durP1;ratioP1;P1;durP2;ratioP2;P2;SDS_P1;SDS_P2;PMS_P1;PMS_P2;Temp;Humidity;BMP_temperature;BMP_pressure;BME280_temperature;BME280_humidity;BME280_pressure;Samples;Min_cycle;Max_cycle;Signal;HPM_P1;HPM_P2
2021/06/12 00:00:30;;;;;;;10.23;9.40;;;17.80;99.90;;;;;;5075081;28;20457;-84
2021/06/12 00:02:57;;;;;;;11.53;10.53;;;17.80;99.90;;;;;;5074981;28;20892;-84
2021/06/12 00:05:23;;;;;;;13.60;10.00;;;17.70;99.90;;;;;;5074351;28;20488;-84
2021/06/12 00:07:50;;;;;;;10.70;9.90;;;17.70;99.90;;;;;;5074888;28;20448;-84
2021/06/12 00:10:21;;;;;;;10.30;9.30;;;17.70;99.90;;;;;;5074900;28;20540;-84
2021/06/12 00:12:48;;;;;;;11.50;10.30;;;17.70;99.90;;;;;;5074786;28;20465;-84
2021/06/12 00:15:17;;;;;;;10.90;10.07;;;17.70;99.90;;;;;;5074700;28;20449;-84
2021/06/12 00:17:44;;;;;;;10.40;9.50;;;17.60;99.90;;;;;;5074739;28;20925;-84
2021/06/12 00:20:13;;;;;;;10.17;9.30;;;17.60;99.90;;;;;;5076205;28;20445;-83
2021/06/12 00:22:42;;;;;;;11.30;10.30;;;17.60;99.90;;;;;;5074949;28;20500;-84
2021/06/12 00:25:09;;;;;;;10.90;10.00;;;17.60;99.90;;;;;;5074193;28;20897;-84
2021/06/12 00:27:36;;;;;;;11.63;10.57;;;17.60;99.90;;;;;;5074509;28;20448;-84
2021/06/12 00:30:04;;;;;;;10.57;9.67;;;17.50;99.90;;;;;;5074475;28;20460;-83
2021/06/12 00:32:31;;;;;;;10.10;9.30;;;17.50;99.90;;;;;;5074014;28;20871;-79
2021/06/12 00:34:57;;;;;;;11.07;10.07;;;17.50;99.90;;;;;;5074044;28;20436;-78
2021/06/12 00:37:24;;;;;;;11.97;11.00;;;17.50;99.90;;;;;;5074322;28;20445;-79
2021/06/12 00:39:50;;;;;;;12.10;11.00;;;17.50;99.90;;;;;;5074247;28;20478;-79
2021/06/12 00:42:16;;;;;;;11.20;10.10;;;17.50;99.90;;;;;;5073854;28;20475;-79
2021/06/12 00:44:43;;;;;;;12.27;10.90;;;17.50;99.90;;;;;;5074116;28;20476;-79
2021/06/12 00:47:09;;;;;;;11.53;10.43;;;17.50;99.90;;;;;;5074096;28;20448;-79
2021/06/12 00:49:37;;;;;;;10.93;10.03;;;17.50;99.90;;;;;;5073078;28;20506;-79
2021/06/12 00:52:04;;;;;;;12.87;11.50;;;17.50;99.90;;;;;;5073907;28;20806;-79
2021/06/12 00:54:30;;;;;;;13.00;11.80;;;17.50;99.90;;;;;;5073753;28;20437;-79
2021/06/12 00:56:57;;;;;;;11.37;10.37;;;17.50;99.90;;;;;;5073902;28;20455;-79
2021/06/12 00:59:24;;;;;;;12.63;11.27;;;17.50;99.90;;;;;;5073872;28;20499;-79
2021/06/12 01:01:51;;;;;;;12.30;11.30;;;17.50;99.90;;;;;;5073810;28;20473;-79
2021/06/12 01:04:18;;;;;;;12.73;11.43;;;17.50;99.90;;;;;;5073470;28;20480;-79
2021/06/12 01:06:49;;;;;;;12.90;11.67;;;17.50;99.90;;;;;;5073304;28;20984;-78
2021/06/12 01:09:16;;;;;;;15.03;11.00;;;17.50;99.90;;;;;;5073485;28;20476;-78
2021/06/12 01:11:51;;;;;;;11.10;10.20;;;17.50;99.90;;;;;;5073338;28;20453;-79
2021/06/12 01:14:23;;;;;;;11.10;10.20;;;17.50;99.90;;;;;;5073700;28;20904;-79
2021/06/12 01:16:54;;;;;;;12.37;10.90;;;17.50;99.90;;;;;;5073654;28;20433;-79
2021/06/12 01:19:35;;;;;;;11.77;10.77;;;17.50;99.90;;;;;;5073637;28;20430;-79
2021/06/12 01:22:08;;;;;;;10.73;9.73;;;17.50;99.90;;;;;;5073555;28;20465;-78
2021/06/12 01:24:47;;;;;;;11.27;10.37;;;17.40;99.90;;;;;;5073557;28;20464;-79
2021/06/12 01:28:05;;;;;;;11.30;10.20;;;17.40;99.90;;;;;;5073263;28;20479;-78
2021/06/12 01:30:34;;;;;;;12.67;11.40;;;17.30;99.90;;;;;;4987291;28;20452;-79
2021/06/12 01:33:04;;;;;;;12.17;11.10;;;17.30;99.90;;;;;;5066684;28;20534;-78
2021/06/12 01:35:33;;;;;;;11.00;10.00;;;17.30;99.90;;;;;;5073655;28;20438;-79
2021/06/12 01:38:01;;;;;;;11.40;10.40;;;17.30;99.90;;;;;;5073606;28;20456;-79
2021/06/12 01:40:32;;;;;;;12.20;11.03;;;17.20;99.90;;;;;;5073019;28;20479;-79
2021/06/12 01:42:59;;;;;;;12.30;11.20;;;17.20;99.90;;;;;;5073045;28;20967;-78
2021/06/12 01:45:26;;;;;;;12.60;11.40;;;17.20;99.90;;;;;;5073264;28;20487;-79
2021/06/12 01:47:55;;;;;;;11.27;10.27;;;17.10;99.90;;;;;;5072937;28;20479;-79
2021/06/12 01:50:23;;;;;;;11.60;10.50;;;17.10;99.90;;;;;;5073219;28;20477;-78
2021/06/12 01:52:51;;;;;;;11.83;10.70;;;17.10;99.90;;;;;;5073184;28;20460;-78
2021/06/12 01:55:21;;;;;;;11.97;10.87;;;17.10;99.90;;;;;;5073207;28;20440;-79
2021/06/12 01:57:48;;;;;;;11.90;10.90;;;17.00;99.90;;;;;;5072868;28;20441;-79
2021/06/12 02:00:16;;;;;;;13.20;10.40;;;17.00;99.90;;;;;;5074157;28;20442;-79
2021/06/12 02:02:44;;;;;;;12.70;11.60;;;16.90;99.90;;;;;;5076961;28;20531;-78
2021/06/12 02:05:16;;;;;;;12.17;11.00;;;16.90;99.90;;;;;;5076902;28;20492;-79
2021/06/12 02:07:44;;;;;;;12.37;11.20;;;16.90;99.90;;;;;;5076944;28;20429;-79
2021/06/12 02:10:13;;;;;;;13.50;12.30;;;16.80;99.90;;;;;;5076872;28;20441;-79
2021/06/12 02:12:39;;;;;;;12.23;10.90;;;16.80;99.90;;;;;;5077034;28;20473;-78
2021/06/12 02:15:08;;;;;;;11.90;10.80;;;16.80;99.90;;;;;;5076773;28;20489;-79
2021/06/12 02:17:37;;;;;;;12.50;11.30;;;16.80;99.90;;;;;;5077003;28;20449;-78
2021/06/12 02:20:07;;;;;;;12.27;11.07;;;16.80;99.90;;;;;;5076978;28;20519;-79
2021/06/12 02:22:36;;;;;;;12.10;11.10;;;16.80;99.90;;;;;;5076550;28;20845;-79
2021/06/12 02:25:07;;;;;;;11.80;10.80;;;16.80;99.90;;;;;;5076761;28;20495;-79
2021/06/12 02:27:35;;;;;;;12.73;11.53;;;16.80;99.90;;;;;;5076937;28;20429;-79
2021/06/12 02:30:04;;;;;;;11.30;10.30;;;16.80;99.90;;;;;;5076779;28;20448;-78
2021/06/12 02:32:37;;;;;;;11.67;10.67;;;16.80;99.90;;;;;;5076380;28;20822;-82
2021/06/12 02:35:04;;;;;;;12.90;11.70;;;16.80;99.90;;;;;;5076420;28;20920;-82
2021/06/12 02:37:30;;;;;;;12.97;11.67;;;16.80;99.90;;;;;;5076346;28;20927;-82
2021/06/12 02:39:58;;;;;;;12.93;11.73;;;16.80;99.90;;;;;;5076553;28;20461;-82
2021/06/12 02:42:24;;;;;;;12.97;11.67;;;16.80;99.90;;;;;;5076475;28;20453;-82
2021/06/12 02:44:50;;;;;;;13.80;11.67;;;16.80;99.90;;;;;;5076458;28;20473;-82
2021/06/12 02:47:19;;;;;;;12.23;11.10;;;16.70;99.90;;;;;;5076447;28;20518;-82
2021/06/12 02:49:47;;;;;;;13.90;11.43;;;16.70;99.90;;;;;;5076682;28;20456;-82
2021/06/12 02:52:18;;;;;;;12.23;11.13;;;16.70;99.90;;;;;;5075930;28;20983;-82
2021/06/12 02:54:46;;;;;;;12.80;11.57;;;16.70;99.90;;;;;;5076054;28;20424;-82
2021/06/12 02:57:15;;;;;;;11.47;10.47;;;16.70;99.90;;;;;;5076288;28;20793;-82
2021/06/12 02:59:44;;;;;;;11.37;10.37;;;16.70;99.90;;;;;;5076187;28;20448;-79
2021/06/12 03:02:12;;;;;;;13.90;12.57;;;16.60;99.90;;;;;;5075833;28;21024;-78
2021/06/12 03:04:41;;;;;;;12.63;11.50;;;16.60;99.90;;;;;;5075943;28;20537;-79
2021/06/12 03:07:08;;;;;;;14.30;12.80;;;16.60;99.90;;;;;;5075833;28;20932;-78
2021/06/12 03:09:37;;;;;;;13.43;11.40;;;16.60;99.90;;;;;;5076040;28;20805;-78
2021/06/12 03:12:04;;;;;;;13.60;11.30;;;16.50;99.90;;;;;;5073199;28;20478;-78
2021/06/12 03:14:33;;;;;;;13.03;11.83;;;16.50;99.90;;;;;;5075947;28;20441;-82
2021/06/12 03:17:00;;;;;;;12.63;11.47;;;16.50;99.90;;;;;;5075649;28;20425;-82
2021/06/12 03:19:27;;;;;;;11.57;10.47;;;16.50;99.90;;;;;;5075611;28;20932;-82
2021/06/12 03:21:54;;;;;;;12.97;10.93;;;16.50;99.90;;;;;;5075444;28;21031;-82
2021/06/12 03:24:20;;;;;;;14.13;12.73;;;16.40;99.90;;;;;;5075660;28;20489;-82
2021/06/12 03:26:47;;;;;;;12.70;11.43;;;16.40;99.90;;;;;;5075671;28;20449;-82
2021/06/12 03:29:14;;;;;;;13.70;12.30;;;16.40;99.90;;;;;;5076179;28;20448;-81
2021/06/12 03:31:43;;;;;;;13.00;11.70;;;16.40;99.90;;;;;;5075566;28;20469;-82
2021/06/12 03:34:09;;;;;;;13.20;11.90;;;16.40;99.90;;;;;;5075339;28;20786;-82
2021/06/12 03:36:36;;;;;;;11.80;10.60;;;16.40;99.90;;;;;;5075303;28;20817;-82
2021/06/12 03:39:03;;;;;;;12.30;11.00;;;16.30;99.90;;;;;;5075492;28;20467;-82
2021/06/12 03:41:29;;;;;;;11.90;10.90;;;16.30;99.90;;;;;;5075341;28;20492;-82
2021/06/12 03:43:56;;;;;;;12.37;11.27;;;16.30;99.90;;;;;;5075323;28;20476;-82
2021/06/12 03:46:24;;;;;;;11.40;10.30;;;16.30;99.90;;;;;;5075376;28;20445;-78
2021/06/12 03:48:52;;;;;;;12.10;11.07;;;16.40;99.90;;;;;;5075285;28;20448;-78
2021/06/12 03:51:20;;;;;;;12.47;11.20;;;16.40;99.90;;;;;;5075124;28;20445;-78
2021/06/12 03:53:47;;;;;;;13.00;11.77;;;16.30;99.90;;;;;;5075210;28;20449;-78
2021/06/12 03:56:15;;;;;;;12.90;11.60;;;16.40;99.90;;;;;;5074838;28;20940;-78
2021/06/12 03:58:44;;;;;;;12.77;11.67;;;16.40;99.90;;;;;;5075100;28;20457;-78
2021/06/12 04:01:12;;;;;;;12.70;11.50;;;16.30;99.90;;;;;;5074762;28;20487;-78
2021/06/12 04:03:39;;;;;;;12.70;11.50;;;16.40;99.90;;;;;;5074926;28;20441;-78
2021/06/12 04:06:07;;;;;;;13.23;11.93;;;16.40;99.90;;;;;;5074577;28;20492;-78
2021/06/12 04:08:34;;;;;;;11.73;10.60;;;16.30;99.90;;;;;;5074918;28;20448;-78
2021/06/12 04:11:00;;;;;;;14.30;12.00;;;16.40;99.90;;;;;;5074772;28;20544;-78
2021/06/12 04:13:26;;;;;;;12.80;11.70;;;16.40;99.90;;;;;;5074546;28;20438;-78
2021/06/12 04:15:53;;;;;;;13.30;11.90;;;16.30;99.90;;;;;;5074767;28;20532;-82
2021/06/12 04:18:19;;;;;;;13.10;11.90;;;16.30;99.90;;;;;;5074728;28;20456;-82
2021/06/12 04:20:45;;;;;;;13.33;12.07;;;16.40;99.90;;;;;;5074641;28;20816;-82
2021/06/12 04:23:13;;;;;;;11.90;10.70;;;16.40;99.90;;;;;;5074065;28;20457;-82
2021/06/12 04:25:39;;;;;;;11.77;10.67;;;16.40;99.90;;;;;;5075206;28;20508;-82
2021/06/12 04:28:06;;;;;;;10.90;10.00;;;16.40;99.90;;;;;;5074534;28;20821;-82
2021/06/12 04:30:34;;;;;;;12.00;10.90;;;16.40;99.90;;;;;;5074517;28;20449;-82
2021/06/12 04:33:01;;;;;;;15.40;11.70;;;16.40;99.90;;;;;;5074098;28;20472;-82
2021/06/12 04:35:29;;;;;;;12.93;11.73;;;16.50;99.90;;;;;;5074341;28;20444;-82
2021/06/12 04:37:58;;;;;;;12.83;11.63;;;16.50;99.90;;;;;;5074084;28;20443;-82
2021/06/12 04:40:28;;;;;;;13.50;12.20;;;16.50;99.90;;;;;;5074254;28;20449;-82
2021/06/12 04:42:54;;;;;;;13.30;12.00;;;16.60;99.90;;;;;;5074170;28;20472;-82
2021/06/12 04:45:20;;;;;;;13.50;12.27;;;16.60;99.90;;;;;;5073831;28;20483;-81
2021/06/12 04:47:47;;;;;;;12.53;11.43;;;16.70;99.90;;;;;;5074439;28;20437;-82
2021/06/12 04:50:14;;;;;;;12.40;11.20;;;16.70;99.90;;;;;;5074090;28;20440;-82
2021/06/12 04:52:40;;;;;;;12.33;11.03;;;16.90;99.90;;;;;;5073978;28;20469;-82
2021/06/12 04:55:08;;;;;;;10.93;9.97;;;16.90;99.90;;;;;;5073741;28;20447;-84
2021/06/12 04:57:37;;;;;;;12.43;11.20;;;17.10;99.90;;;;;;5074022;28;20790;-84
2021/06/12 05:00:04;;;;;;;12.50;10.50;;;17.20;99.90;;;;;;5073677;28;20952;-84
2021/06/12 05:02:30;;;;;;;12.40;11.30;;;17.30;99.90;;;;;;5073823;28;20530;-84
2021/06/12 05:04:56;;;;;;;11.67;10.47;;;17.40;99.90;;;;;;5073513;28;20485;-84
2021/06/12 05:07:23;;;;;;;12.93;11.73;;;17.50;99.90;;;;;;5073872;28;20429;-84
2021/06/12 05:09:49;;;;;;;12.53;11.33;;;17.60;99.90;;;;;;5073542;28;20511;-84
2021/06/12 05:12:15;;;;;;;13.03;11.70;;;17.60;99.90;;;;;;5073320;28;21060;-84
2021/06/12 05:14:45;;;;;;;12.97;11.77;;;17.70;99.90;;;;;;5074025;28;20441;-84
2021/06/12 05:17:14;;;;;;;12.80;11.63;;;17.70;99.90;;;;;;5073703;28;20506;-84
2021/06/12 05:19:41;;;;;;;11.80;10.70;;;17.80;99.90;;;;;;5073275;28;20936;-84
2021/06/12 05:22:07;;;;;;;11.10;10.20;;;17.80;99.90;;;;;;5073557;28;20471;-84
2021/06/12 05:24:35;;;;;;;11.57;10.57;;;17.90;99.90;;;;;;5073216;28;20534;-84
2021/06/12 05:27:01;;;;;;;11.07;10.17;;;18.00;99.90;;;;;;5073224;28;20451;-84
2021/06/12 05:29:27;;;;;;;10.80;9.87;;;18.00;99.90;;;;;;5073502;28;20448;-84
2021/06/12 05:31:55;;;;;;;10.97;10.07;;;18.10;99.90;;;;;;5073439;28;20472;-84
2021/06/12 05:34:21;;;;;;;12.07;10.90;;;18.30;99.90;;;;;;5073033;28;20449;-84
2021/06/12 05:36:47;;;;;;;12.10;10.00;;;18.30;99.90;;;;;;5073300;28;20441;-84
2021/06/12 05:39:13;;;;;;;10.87;9.87;;;18.50;99.90;;;;;;5073096;28;20448;-84
2021/06/12 05:41:40;;;;;;;9.60;8.80;;;18.50;99.90;;;;;;5073049;28;20457;-78
2021/06/12 05:44:06;;;;;;;9.93;9.13;;;18.60;99.90;;;;;;5073291;28;20987;-78
2021/06/12 05:46:32;;;;;;;10.90;10.00;;;18.60;99.90;;;;;;5073127;28;20792;-78
2021/06/12 05:49:00;;;;;;;10.80;9.80;;;18.70;99.90;;;;;;5072958;28;20808;-78
2021/06/12 05:51:26;;;;;;;10.27;9.43;;;18.70;99.90;;;;;;5072931;28;20529;-78
2021/06/12 05:53:53;;;;;;;10.43;9.40;;;18.90;99.90;;;;;;5073255;28;20456;-78
2021/06/12 05:56:19;;;;;;;10.90;9.90;;;19.00;99.90;;;;;;5073195;28;20453;-78
2021/06/12 05:58:45;;;;;;;10.83;9.80;;;19.10;99.90;;;;;;5073237;28;20448;-78
2021/06/12 06:01:12;;;;;;;11.23;10.33;;;19.20;99.90;;;;;;5072877;28;20452;-78
2021/06/12 06:03:39;;;;;;;10.97;10.03;;;19.20;99.90;;;;;;5072818;28;20478;-78
2021/06/12 06:06:07;;;;;;;10.83;9.93;;;19.30;99.90;;;;;;5072649;28;20496;-78
2021/06/12 06:08:33;;;;;;;10.93;9.80;;;19.30;99.90;;;;;;5072824;28;20578;-78
2021/06/12 06:11:00;;;;;;;9.80;8.90;;;19.40;99.90;;;;;;5072907;28;20436;-82
2021/06/12 06:13:26;;;;;;;10.70;9.80;;;19.60;99.90;;;;;;5073812;28;20485;-82
2021/06/12 06:15:53;;;;;;;10.37;9.53;;;19.80;99.90;;;;;;5072818;28;20447;-82
2021/06/12 06:18:19;;;;;;;10.37;9.47;;;19.90;99.90;;;;;;5072721;28;20461;-82
2021/06/12 06:20:45;;;;;;;10.40;9.60;;;20.10;99.90;;;;;;5072983;28;20444;-82
2021/06/12 06:23:13;;;;;;;9.17;8.37;;;20.40;99.90;;;;;;5072917;28;20475;-85
2021/06/12 06:25:39;;;;;;;10.30;9.50;;;20.70;99.90;;;;;;5072645;28;20544;-85
2021/06/12 06:28:05;;;;;;;9.45;8.75;;;21.30;99.90;;;;;;5073464;28;20202;-85
2021/06/12 06:30:32;;;;;;;10.20;9.40;;;21.90;99.90;;;;;;5072982;28;20229;-84
2021/06/12 06:32:58;;;;;;;8.82;8.23;;;22.50;99.90;;;;;;5072834;28;20279;-85
2021/06/12 06:35:24;;;;;;;8.70;8.10;;;22.80;99.90;;;;;;5072901;28;20206;-85
2021/06/12 06:37:50;;;;;;;8.55;7.95;;;22.90;99.90;;;;;;5072835;28;20209;-80
2021/06/12 06:40:18;;;;;;;8.80;8.10;;;23.20;99.90;;;;;;5073399;28;20220;-83
2021/06/12 06:42:44;;;;;;;8.15;7.55;;;23.50;99.90;;;;;;5072483;28;20210;-83
2021/06/12 06:45:12;;;;;;;8.70;8.02;;;23.60;99.90;;;;;;5072701;28;20222;-83
2021/06/12 06:47:38;;;;;;;8.73;7.88;;;23.90;99.90;;;;;;5075963;28;20347;-83
2021/06/12 06:50:06;;;;;;;8.57;7.78;;;24.00;99.90;;;;;;5076108;28;20202;-83
2021/06/12 06:52:32;;;;;;;8.10;7.43;;;24.20;99.90;;;;;;5076965;28;20233;-83
2021/06/12 06:54:58;;;;;;;7.35;6.85;;;24.40;99.90;;;;;;5076363;28;20198;-83
2021/06/12 06:57:26;;;;;;;7.85;7.25;;;24.50;99.90;;;;;;5076356;28;20186;-83
2021/06/12 06:59:52;;;;;;;8.32;7.72;;;24.80;99.90;;;;;;5076313;28;20187;-82
2021/06/12 07:02:18;;;;;;;8.05;7.45;;;24.70;99.90;;;;;;5076202;28;20226;-83
2021/06/12 07:04:45;;;;;;;7.60;7.00;;;24.60;99.90;;;;;;5075698;28;20217;-83
2021/06/12 07:07:11;;;;;;;7.38;6.70;;;24.70;99.90;;;;;;5076979;28;20197;-83
2021/06/12 07:09:37;;;;;;;6.43;5.95;;;24.60;99.90;;;;;;5076152;28;20190;-83
2021/06/12 07:12:04;;;;;;;6.65;6.13;;;24.90;99.90;;;;;;5075707;28;20697;-83
2021/06/12 07:14:32;;;;;;;10.60;9.70;;;25.00;99.90;;;;;;5075715;28;20661;-79
2021/06/12 07:16:58;;;;;;;7.80;7.30;;;24.90;99.90;;;;;;5076027;28;20194;-79
2021/06/12 07:19:24;;;;;;;9.27;8.45;;;25.00;99.90;;;;;;5075950;28;20190;-79
2021/06/12 07:21:51;;;;;;;7.35;6.85;;;25.00;99.90;;;;;;5075851;28;20218;-80
2021/06/12 07:24:17;;;;;;;7.32;6.63;;;25.10;99.90;;;;;;5076471;28;20214;-79
2021/06/12 07:26:44;;;;;;;6.97;6.47;;;25.60;99.90;;;;;;5075780;28;20592;-79
2021/06/12 07:29:10;;;;;;;7.07;6.57;;;25.90;99.90;;;;;;5075456;28;20554;-79
2021/06/12 07:31:38;;;;;;;6.32;5.85;;;26.10;99.90;;;;;;5075311;28;20239;-79
2021/06/12 07:34:05;;;;;;;5.70;5.40;;;26.60;99.90;;;;;;5075587;28;20204;-79
2021/06/12 07:36:31;;;;;;;6.35;5.95;;;27.30;99.90;;;;;;5075589;28;20213;-83
2021/06/12 07:38:58;;;;;;;5.57;5.18;;;27.80;99.90;;;;;;5075294;28;20205;-82
2021/06/12 07:41:24;;;;;;;5.40;5.10;;;28.40;99.90;;;;;;5075409;28;20281;-83
2021/06/12 07:43:51;;;;;;;5.78;5.47;;;29.00;99.90;;;;;;5075483;28;20214;-80
2021/06/12 07:46:17;;;;;;;6.60;6.20;;;29.50;99.90;;;;;;5075067;28;20233;-80
2021/06/12 07:48:45;;;;;;;6.22;5.88;;;29.80;97.30;;;;;;5075374;28;20225;-79
2021/06/12 07:51:11;;;;;;;5.57;5.25;;;30.00;95.90;;;;;;5074942;28;20671;-80
2021/06/12 07:53:37;;;;;;;5.90;5.50;;;30.30;95.50;;;;;;5074878;28;20236;-80
2021/06/12 07:56:04;;;;;;;5.93;5.63;;;30.40;93.90;;;;;;5075207;28;20249;-80
2021/06/12 07:58:30;;;;;;;6.25;5.75;;;30.70;93.30;;;;;;5074220;28;20699;-80
2021/06/12 08:00:57;;;;;;;5.13;4.88;;;31.00;92.20;;;;;;5074806;28;20215;-80
2021/06/12 08:03:23;;;;;;;4.65;4.45;;;31.50;90.40;;;;;;5075021;28;20272;-81
2021/06/12 08:05:50;;;;;;;4.10;3.90;;;32.30;89.90;;;;;;5074606;28;20359;-80
2021/06/12 08:08:17;;;;;;;3.90;3.70;;;33.20;81.60;;;;;;5074758;28;20564;-79
2021/06/12 08:10:43;;;;;;;4.30;4.00;;;33.90;73.80;;;;;;5074679;28;20248;-80
2021/06/12 08:13:09;;;;;;;4.18;3.97;;;34.50;70.30;;;;;;5074775;28;20234;-80
2021/06/12 08:15:36;;;;;;;3.95;3.85;;;34.90;67.10;;;;;;5074813;28;20198;-80
2021/06/12 08:18:03;;;;;;;3.95;3.75;;;34.50;64.60;;;;;;5074680;28;20206;-80
2021/06/12 08:20:29;;;;;;;5.07;4.78;;;34.50;65.40;;;;;;5074775;28;20215;-79
2021/06/12 08:22:57;;;;;;;4.60;4.40;;;34.20;64.70;;;;;;5074278;28;20638;-79
2021/06/12 08:25:23;;;;;;;4.85;4.53;;;33.40;64.70;;;;;;5074504;28;20231;-80
2021/06/12 08:27:49;;;;;;;4.53;4.22;;;32.60;69.50;;;;;;5074611;28;20226;-79
2021/06/12 08:30:17;;;;;;;4.82;4.43;;;32.40;71.30;;;;;;5074552;28;20203;-79
2021/06/12 08:32:43;;;;;;;4.95;4.65;;;31.70;73.20;;;;;;5074086;28;20231;-79
2021/06/12 08:35:10;;;;;;;4.38;4.22;;;30.90;73.50;;;;;;5074398;28;20194;-79
2021/06/12 08:37:37;;;;;;;3.75;3.47;;;30.10;75.70;;;;;;5074387;28;20206;-79
2021/06/12 08:40:06;;;;;;;3.45;3.35;;;29.50;76.00;;;;;;5074289;28;20203;-79
2021/06/12 08:42:32;;;;;;;3.92;3.60;;;29.60;73.60;;;;;;5074228;28;20233;-80
2021/06/12 08:45:03;;;;;;;4.18;3.88;;;29.50;71.80;;;;;;5074121;28;20223;-79
2021/06/12 08:47:31;;;;;;;4.00;3.80;;;29.20;71.40;;;;;;5074335;28;20191;-79
2021/06/12 08:49:58;;;;;;;4.90;3.80;;;29.10;73.00;;;;;;5074194;28;20223;-79
2021/06/12 08:52:24;;;;;;;3.58;3.47;;;28.90;72.30;;;;;;5073930;28;20705;-79
2021/06/12 08:54:50;;;;;;;4.03;3.83;;;28.90;74.80;;;;;;5073790;28;20587;-80
2021/06/12 08:57:18;;;;;;;5.45;3.50;;;29.00;72.50;;;;;;5074010;28;20201;-79
2021/06/12 08:59:45;;;;;;;3.75;3.55;;;29.10;73.20;;;;;;5073708;28;20201;-80
2021/06/12 09:02:12;;;;;;;3.53;3.17;;;29.30;73.50;;;;;;5073582;28;20229;-79
2021/06/12 09:04:43;;;;;;;2.85;2.75;;;29.40;68.70;;;;;;5073308;28;20248;-80
2021/06/12 09:07:25;;;;;;;3.85;3.58;;;29.30;68.20;;;;;;5073886;28;20206;-79
2021/06/12 09:09:54;;;;;;;2.95;2.85;;;29.20;73.30;;;;;;5072948;28;20333;-80
2021/06/12 09:12:22;;;;;;;3.33;3.13;;;29.10;71.20;;;;;;5073456;28;20233;-80
2021/06/12 09:15:06;;;;;;;2.35;2.35;;;29.10;70.90;;;;;;5073394;28;20204;-80
2021/06/12 09:17:45;;;;;;;4.07;3.80;;;28.90;67.50;;;;;;5073561;28;20234;-79
2021/06/12 09:20:15;;;;;;;3.28;3.08;;;28.60;70.30;;;;;;5073353;28;20192;-79
2021/06/12 09:22:42;;;;;;;3.28;3.08;;;28.30;71.40;;;;;;5073024;28;20717;-79
2021/06/12 09:25:10;;;;;;;3.08;2.88;;;28.40;71.80;;;;;;5073278;28;20213;-79
2021/06/12 09:27:37;;;;;;;2.60;2.50;;;28.40;69.90;;;;;;5073096;28;20574;-79
2021/06/12 09:30:06;;;;;;;2.95;2.85;;;28.50;71.40;;;;;;5073333;28;20208;-79
2021/06/12 09:32:43;;;;;;;2.60;2.50;;;28.60;73.30;;;;;;5073224;28;20234;-79
2021/06/12 09:35:10;;;;;;;2.78;2.67;;;28.80;71.10;;;;;;5073248;28;20186;-79
2021/06/12 09:37:37;;;;;;;2.55;2.45;;;28.70;71.40;;;;;;5073251;28;20298;-79
2021/06/12 09:40:07;;;;;;;3.28;3.08;;;28.50;71.40;;;;;;5072970;28;20213;-79
2021/06/12 09:42:41;;;;;;;2.65;2.55;;;28.50;76.00;;;;;;5073287;28;20219;-85
2021/06/12 09:45:10;;;;;;;2.60;2.50;;;28.80;73.10;;;;;;5073329;28;20212;-84
2021/06/12 09:47:36;;;;;;;2.40;2.30;;;28.90;73.70;;;;;;5075979;28;20551;-84
2021/06/12 09:50:05;;;;;;;3.22;3.03;;;29.10;73.30;;;;;;5073310;28;20197;-84
2021/06/12 09:52:41;;;;;;;2.78;2.67;;;29.30;73.90;;;;;;5073237;28;20223;-85
2021/06/12 09:55:08;;;;;;;3.00;2.88;;;29.30;73.40;;;;;;5073370;28;20352;-85
2021/06/12 09:57:47;;;;;;;2.55;2.45;;;29.20;74.90;;;;;;5073335;28;20192;-85
2021/06/12 10:00:15;;;;;;;2.60;2.47;;;29.00;74.30;;;;;;5073049;28;20228;-84
2021/06/12 10:02:43;;;;;;;2.45;2.35;;;28.80;69.60;;;;;;5072973;28;20235;-85
2021/06/12 10:05:12;;;;;;;2.47;2.38;;;28.80;71.40;;;;;;5072754;28;20234;-84
2021/06/12 10:07:39;;;;;;;2.80;2.70;;;28.70;70.80;;;;;;5073236;28;20191;-85
2021/06/12 10:10:08;;;;;;;2.53;2.33;;;28.70;71.30;;;;;;5072899;28;20183;-85
2021/06/12 10:12:35;;;;;;;2.30;2.20;;;28.80;71.60;;;;;;5073092;28;20599;-85
2021/06/12 10:15:06;;;;;;;2.25;2.15;;;28.90;70.90;;;;;;5073115;28;20183;-84
2021/06/12 10:17:38;;;;;;;2.45;2.35;;;29.00;71.40;;;;;;5072768;28;20195;-85
2021/06/12 10:20:06;;;;;;;2.40;2.30;;;28.90;70.80;;;;;;5073117;28;20187;-85
2021/06/12 10:22:32;;;;;;;2.20;2.10;;;28.80;72.00;;;;;;5076338;28;20229;-85
2021/06/12 10:24:59;;;;;;;2.80;2.70;;;28.80;70.50;;;;;;5077206;28;20210;-85
2021/06/12 10:27:26;;;;;;;3.00;2.80;;;29.00;72.90;;;;;;5077037;28;20192;-85
2021/06/12 10:29:52;;;;;;;2.80;2.70;;;29.20;73.80;;;;;;5076667;28;20644;-85
2021/06/12 10:32:20;;;;;;;2.53;2.42;;;29.40;71.80;;;;;;5076775;28;20222;-85
2021/06/12 10:34:51;;;;;;;3.50;2.80;;;29.40;68.80;;;;;;5076877;28;20195;-86
2021/06/12 10:37:19;;;;;;;2.80;2.70;;;29.30;72.60;;;;;;5076841;28;20187;-85
2021/06/12 10:39:46;;;;;;;2.53;2.38;;;29.20;71.30;;;;;;5076703;28;20197;-83
2021/06/12 10:42:15;;;;;;;2.65;2.55;;;29.10;69.60;;;;;;5076584;28;20596;-83
2021/06/12 10:44:42;;;;;;;2.67;2.58;;;29.00;72.20;;;;;;5076430;28;20586;-83
2021/06/12 10:47:09;;;;;;;3.13;3.03;;;28.90;72.80;;;;;;5076294;28;20240;-83
2021/06/12 10:49:37;;;;;;;2.50;2.40;;;28.70;72.10;;;;;;5076183;28;20187;-83
2021/06/12 10:52:05;;;;;;;2.85;2.65;;;28.80;73.20;;;;;;5076368;28;20304;-83
2021/06/12 10:54:35;;;;;;;3.20;3.00;;;28.70;72.90;;;;;;5076464;28;20190;-83
2021/06/12 10:57:05;;;;;;;3.22;3.10;;;28.70;73.80;;;;;;5076097;28;20198;-84
2021/06/12 11:00:00;;;;;;;2.80;2.70;;;28.80;73.00;;;;;;5075997;28;20634;-84
2021/06/12 11:02:29;;;;;;;2.88;2.78;;;29.10;71.00;;;;;;5075938;28;20606;-80
2021/06/12 11:04:58;;;;;;;2.78;2.67;;;29.10;70.80;;;;;;5076089;28;20210;-84
2021/06/12 11:07:30;;;;;;;5.00;2.78;;;29.10;72.50;;;;;;5076170;28;20295;-85
2021/06/12 11:10:22;;;;;;;2.80;2.70;;;29.10;69.60;;;;;;5076088;28;20191;-84
2021/06/12 11:12:49;;;;;;;2.28;2.17;;;29.20;67.30;;;;;;5075986;28;20223;-84
2021/06/12 11:15:28;;;;;;;2.75;2.55;;;29.20;67.90;;;;;;5076018;28;20610;-84
2021/06/12 11:18:21;;;;;;;1.80;1.80;;;28.90;67.10;;;;;;5075940;28;20187;-85
2021/06/12 11:21:06;;;;;;;1.92;1.90;;;28.90;65.60;;;;;;5075748;28;20566;-85
2021/06/12 11:23:48;;;;;;;2.40;2.30;;;28.80;65.00;;;;;;5076288;28;20285;-86
2021/06/12 11:26:15;;;;;;;2.03;1.92;;;28.80;67.60;;;;;;5075815;28;20213;-85
2021/06/12 11:28:45;;;;;;;2.25;2.00;;;28.70;68.00;;;;;;5075928;28;20174;-87
2021/06/12 11:31:34;;;;;;;2.28;2.17;;;28.50;67.60;;;;;;5075889;28;20289;-83
2021/06/12 11:34:15;;;;;;;2.30;2.20;;;28.40;68.30;;;;;;5075514;28;20186;-83
2021/06/12 11:36:45;;;;;;;1.90;1.80;;;28.40;68.00;;;;;;5075569;28;20189;-83
2021/06/12 11:39:11;;;;;;;2.38;2.28;;;28.40;67.50;;;;;;5075564;28;20256;-84
2021/06/12 11:41:38;;;;;;;2.20;2.10;;;28.40;68.00;;;;;;5075223;28;20229;-83
2021/06/12 11:44:04;;;;;;;2.50;2.40;;;28.10;67.50;;;;;;5075179;28;20673;-83
2021/06/12 11:46:33;;;;;;;2.08;1.98;;;28.10;68.70;;;;;;5075457;28;20271;-83
2021/06/12 11:49:04;;;;;;;2.70;1.77;;;28.10;67.10;;;;;;5075161;28;20210;-83
2021/06/12 11:51:32;;;;;;;1.77;1.67;;;28.10;66.30;;;;;;5075054;28;20759;-82
2021/06/12 11:54:18;;;;;;;1.50;1.40;;;28.30;65.70;;;;;;5075593;28;20194;-83
2021/06/12 11:56:46;;;;;;;1.88;1.23;;;28.30;65.80;;;;;;5075301;28;20182;-83
2021/06/12 11:59:14;;;;;;;4.22;1.27;;;28.40;66.40;;;;;;5074868;28;20704;-83
2021/06/12 12:01:43;;;;;;;1.60;1.50;;;28.50;62.80;;;;;;5074859;28;20634;-83
2021/06/12 12:04:13;;;;;;;1.30;1.20;;;28.40;61.70;;;;;;5075128;28;20206;-82
2021/06/12 12:06:44;;;;;;;1.50;1.35;;;28.30;62.80;;;;;;5074561;28;20240;-82
2021/06/12 12:09:19;;;;;;;2.15;1.30;;;28.30;60.90;;;;;;5075029;28;20195;-83
2021/06/12 12:11:50;;;;;;;1.52;1.42;;;28.20;61.70;;;;;;5074733;28;20214;-82
2021/06/12 12:14:16;;;;;;;1.27;1.20;;;28.10;62.20;;;;;;5074644;28;20646;-82
2021/06/12 12:16:45;;;;;;;1.95;1.60;;;28.10;60.40;;;;;;5074489;28;20692;-83
2021/06/12 12:19:11;;;;;;;1.80;1.70;;;28.00;61.30;;;;;;5074769;28;20209;-82
2021/06/12 12:21:41;;;;;;;1.40;1.38;;;27.90;63.80;;;;;;5074444;28;20221;-83
2021/06/12 12:24:09;;;;;;;1.77;1.67;;;27.70;64.10;;;;;;5075116;28;20554;-83
2021/06/12 12:26:36;;;;;;;2.10;2.00;;;27.60;66.90;;;;;;5074254;28;20248;-83
2021/06/12 12:29:08;;;;;;;1.80;1.70;;;27.60;66.50;;;;;;5075001;28;20568;-83
2021/06/12 12:31:41;;;;;;;1.77;1.67;;;27.40;66.50;;;;;;5074510;28;20312;-83
2021/06/12 12:34:07;;;;;;;2.42;1.63;;;27.40;68.00;;;;;;5074403;28;20182;-84
2021/06/12 12:36:43;;;;;;;1.50;1.40;;;27.50;69.10;;;;;;5074511;28;20541;-83
2021/06/12 12:39:10;;;;;;;1.50;1.48;;;27.50;67.60;;;;;;5074436;28;20232;-84
2021/06/12 12:41:36;;;;;;;1.77;1.30;;;27.40;66.50;;;;;;5074223;28;20308;-85
2021/06/12 12:44:13;;;;;;;1.35;1.10;;;27.40;66.10;;;;;;5074185;28;20590;-83